This is the latest recevied weather packets stored in our database for station/object SQ4IXR-4. If no packets are shown the sender has not sent any weather packets the latest 10 day(s).
| Time | Temp. | Humidity | Pressure | Rain* | Wind** | Luminosity | Snow |
|---|---|---|---|---|---|---|---|
| 1777827005 | 24.44° C | 21% | 1015.7 hPa | - | - | - | - |
| 1777826183 | 25° C | 21% | 1015.8 hPa | - | - | - | - |
| 1777825359 | 25.56° C | 20% | 1015.9 hPa | - | - | - | - |
| 1777824537 | 26.11° C | 20% | 1015.8 hPa | - | - | - | - |
| 1777823715 | 26.67° C | 19% | 1015.9 hPa | - | - | - | - |
| 1777822888 | 26.11° C | 20% | 1016 hPa | - | - | - | - |
| 1777822064 | 25.56° C | 21% | 1016.3 hPa | - | - | - | - |
| 1777821243 | 26.11° C | 20% | 1016.3 hPa | - | - | - | - |
| 1777820421 | 26.67° C | 20% | 1016.4 hPa | - | - | - | - |
| 1777819598 | 27.22° C | 20% | 1016.6 hPa | - | - | - | - |
| 1777818775 | 27.22° C | 19% | 1016.6 hPa | - | - | - | - |
| 1777817950 | 27.22° C | 19% | 1016.9 hPa | - | - | - | - |
| 1777817128 | 27.78° C | 18% | 1016.9 hPa | - | - | - | - |
| 1777816303 | 27.78° C | 19% | 1017 hPa | - | - | - | - |
| 1777815483 | 28.33° C | 18% | 1017.3 hPa | - | - | - | - |
| 1777814658 | 29.44° C | 17% | 1017.3 hPa | - | - | - | - |
| 1777813836 | 30° C | 17% | 1017.3 hPa | - | - | - | - |
| 1777813011 | 29.44° C | 17% | 1017.5 hPa | - | - | - | - |
| 1777812200 | 32.22° C | 15% | 1017.5 hPa | - | - | - | - |
| 1777811389 | 41.67° C | 9% | 1017.1 hPa | - | - | - | - |
| 1777810571 | 41.67° C | 8% | 1017.2 hPa | - | - | - | - |
| 1777809750 | 44.44° C | 7% | 1017.3 hPa | - | - | - | - |
| 1777808916 | 41.67° C | 8% | 1017.4 hPa | - | - | - | - |
| 1777808085 | 37.78° C | 11% | 1018 hPa | - | - | - | - |
| 1777807255 | 29.44° C | 17% | 1018.6 hPa | - | - | - | - |
* Rain since midnight (hover to see other rain measurements)
** Current wind speed in m/s (hover to see current wind gust speed)